sensor_id;sensor_type;location;lat;lon;timestamp;pressure;altitude;pressure_sealevel;temperature;humidity
72465;BME280;60471;52.150;4.508;2023-04-06T00:02:17;101559.41;;;8.23;53.20
72465;BME280;60471;52.150;4.508;2023-04-06T00:04:43;101555.03;;;8.22;52.88
72465;BME280;60471;52.150;4.508;2023-04-06T00:07:10;101549.31;;;8.08;53.28
72465;BME280;60471;52.150;4.508;2023-04-06T00:09:36;101547.78;;;7.99;53.54
72465;BME280;60471;52.150;4.508;2023-04-06T00:12:02;101546.19;;;7.94;53.12
72465;BME280;60471;52.150;4.508;2023-04-06T00:14:29;101547.44;;;7.77;53.55
72465;BME280;60471;52.150;4.508;2023-04-06T00:16:55;101546.59;;;7.77;54.14
72465;BME280;60471;52.150;4.508;2023-04-06T00:19:21;101541.47;;;7.72;54.17
72465;BME280;60471;52.150;4.508;2023-04-06T00:21:48;101540.78;;;7.64;53.57
72465;BME280;60471;52.150;4.508;2023-04-06T00:24:14;101535.75;;;7.55;54.09
72465;BME280;60471;52.150;4.508;2023-04-06T00:26:42;101531.53;;;7.48;53.97
72465;BME280;60471;52.150;4.508;2023-04-06T00:29:09;101528.84;;;7.51;53.79
72465;BME280;60471;52.150;4.508;2023-04-06T00:31:35;101524.50;;;7.48;53.01
72465;BME280;60471;52.150;4.508;2023-04-06T00:34:01;101526.16;;;7.54;52.39
72465;BME280;60471;52.150;4.508;2023-04-06T00:36:27;101519.91;;;7.58;52.62
72465;BME280;60471;52.150;4.508;2023-04-06T00:38:53;101513.69;;;7.62;52.32
72465;BME280;60471;52.150;4.508;2023-04-06T00:41:20;101516.50;;;7.54;51.89
72465;BME280;60471;52.150;4.508;2023-04-06T00:43:47;101510.44;;;7.52;52.02
72465;BME280;60471;52.150;4.508;2023-04-06T00:46:13;101509.00;;;7.39;52.46
72465;BME280;60471;52.150;4.508;2023-04-06T00:48:39;101514.31;;;7.36;52.16
72465;BME280;60471;52.150;4.508;2023-04-06T00:51:06;101504.72;;;7.35;52.26
72465;BME280;60471;52.150;4.508;2023-04-06T00:53:32;101510.00;;;7.34;52.02
72465;BME280;60471;52.150;4.508;2023-04-06T00:55:59;101503.09;;;7.30;52.22
72465;BME280;60471;52.150;4.508;2023-04-06T00:58:25;101494.47;;;7.24;52.22
72465;BME280;60471;52.150;4.508;2023-04-06T01:00:51;101496.09;;;7.30;52.15
72465;BME280;60471;52.150;4.508;2023-04-06T01:03:18;101489.88;;;7.34;52.12
72465;BME280;60471;52.150;4.508;2023-04-06T01:05:44;101492.41;;;7.39;51.70
72465;BME280;60471;52.150;4.508;2023-04-06T01:08:10;101489.81;;;7.36;51.85
72465;BME280;60471;52.150;4.508;2023-04-06T01:10:37;101482.75;;;7.38;52.10
72465;BME280;60471;52.150;4.508;2023-04-06T01:13:03;101475.78;;;7.38;51.80
72465;BME280;60471;52.150;4.508;2023-04-06T01:15:29;101471.53;;;7.33;52.13
72465;BME280;60471;52.150;4.508;2023-04-06T01:17:56;101462.88;;;7.29;52.04
72465;BME280;60471;52.150;4.508;2023-04-06T01:20:22;101462.16;;;7.22;51.79
72465;BME280;60471;52.150;4.508;2023-04-06T01:22:48;101458.66;;;7.22;51.69
72465;BME280;60471;52.150;4.508;2023-04-06T01:25:14;101461.06;;;7.31;51.88
72465;BME280;60471;52.150;4.508;2023-04-06T01:27:41;101454.28;;;7.22;52.13
72465;BME280;60471;52.150;4.508;2023-04-06T01:30:07;101459.56;;;7.21;51.95
72465;BME280;60471;52.150;4.508;2023-04-06T01:32:33;101450.09;;;7.14;52.04
72465;BME280;60471;52.150;4.508;2023-04-06T01:35:00;101449.09;;;7.19;51.65
72465;BME280;60471;52.150;4.508;2023-04-06T01:37:26;101446.69;;;7.10;51.79
72465;BME280;60471;52.150;4.508;2023-04-06T01:39:52;101439.56;;;7.17;52.34
72465;BME280;60471;52.150;4.508;2023-04-06T01:42:18;101437.88;;;7.13;51.91
72465;BME280;60471;52.150;4.508;2023-04-06T01:44:45;101438.88;;;7.09;52.05
72465;BME280;60471;52.150;4.508;2023-04-06T01:47:11;101441.44;;;7.10;52.22
72465;BME280;60471;52.150;4.508;2023-04-06T01:49:37;101423.69;;;7.21;52.45
72465;BME280;60471;52.150;4.508;2023-04-06T01:52:03;101417.75;;;7.13;52.16
72465;BME280;60471;52.150;4.508;2023-04-06T01:54:30;101424.94;;;7.07;52.26
72465;BME280;60471;52.150;4.508;2023-04-06T01:56:56;101421.31;;;7.11;52.55
72465;BME280;60471;52.150;4.508;2023-04-06T01:59:22;101418.69;;;7.11;52.69
72465;BME280;60471;52.150;4.508;2023-04-06T02:01:48;101421.22;;;7.14;52.77
72465;BME280;60471;52.150;4.508;2023-04-06T02:04:15;101424.72;;;7.14;53.12
72465;BME280;60471;52.150;4.508;2023-04-06T02:06:41;101416.16;;;7.08;52.96
72465;BME280;60471;52.150;4.508;2023-04-06T02:09:07;101412.47;;;7.15;52.88
72465;BME280;60471;52.150;4.508;2023-04-06T02:11:34;101404.59;;;7.15;53.10
72465;BME280;60471;52.150;4.508;2023-04-06T02:14:01;101402.47;;;6.95;53.21
72465;BME280;60471;52.150;4.508;2023-04-06T02:16:27;101392.66;;;7.02;53.19
72465;BME280;60471;52.150;4.508;2023-04-06T02:18:53;101405.16;;;6.92;53.63
72465;BME280;60471;52.150;4.508;2023-04-06T02:21:19;101391.06;;;6.96;53.35
72465;BME280;60471;52.150;4.508;2023-04-06T02:23:46;101389.28;;;6.98;53.31
72465;BME280;60471;52.150;4.508;2023-04-06T02:26:13;101390.22;;;6.95;53.52
72465;BME280;60471;52.150;4.508;2023-04-06T02:28:40;101391.22;;;6.90;53.99
72465;BME280;60471;52.150;4.508;2023-04-06T02:31:08;101390.09;;;7.00;53.37
72465;BME280;60471;52.150;4.508;2023-04-06T02:33:34;101393.06;;;6.86;53.78
72465;BME280;60471;52.150;4.508;2023-04-06T02:36:00;101379.00;;;6.89;53.65
72465;BME280;60471;52.150;4.508;2023-04-06T02:38:26;101379.72;;;6.95;54.01
72465;BME280;60471;52.150;4.508;2023-04-06T02:40:53;101383.94;;;7.01;53.78
72465;BME280;60471;52.150;4.508;2023-04-06T02:43:19;101378.25;;;6.84;54.64
72465;BME280;60471;52.150;4.508;2023-04-06T02:45:45;101373.63;;;6.93;54.73
72465;BME280;60471;52.150;4.508;2023-04-06T02:48:11;101371.13;;;6.89;54.99
72465;BME280;60471;52.150;4.508;2023-04-06T02:50:38;101371.59;;;7.05;54.69
72465;BME280;60471;52.150;4.508;2023-04-06T02:53:04;101369.22;;;6.95;55.21
72465;BME280;60471;52.150;4.508;2023-04-06T02:55:30;101364.66;;;7.02;54.84
72465;BME280;60471;52.150;4.508;2023-04-06T02:57:56;101370.72;;;7.06;54.79
72465;BME280;60471;52.150;4.508;2023-04-06T03:00:23;101361.94;;;7.07;55.09
72465;BME280;60471;52.150;4.508;2023-04-06T03:02:49;101362.22;;;6.96;55.56
72465;BME280;60471;52.150;4.508;2023-04-06T03:05:15;101358.78;;;6.92;56.01
72465;BME280;60471;52.150;4.508;2023-04-06T03:07:41;101348.25;;;6.95;55.37
72465;BME280;60471;52.150;4.508;2023-04-06T03:10:08;101355.25;;;6.95;55.63
72465;BME280;60471;52.150;4.508;2023-04-06T03:12:35;101351.56;;;7.02;55.45
72465;BME280;60471;52.150;4.508;2023-04-06T03:15:01;101345.50;;;7.00;55.58
72465;BME280;60471;52.150;4.508;2023-04-06T03:17:28;101346.34;;;7.01;55.39
72465;BME280;60471;52.150;4.508;2023-04-06T03:19:54;101352.44;;;7.01;55.54
72465;BME280;60471;52.150;4.508;2023-04-06T03:22:20;101342.59;;;7.11;55.51
72465;BME280;60471;52.150;4.508;2023-04-06T03:24:46;101349.66;;;7.09;55.52
72465;BME280;60471;52.150;4.508;2023-04-06T03:27:13;101341.59;;;7.15;55.13
72465;BME280;60471;52.150;4.508;2023-04-06T03:29:39;101347.97;;;7.05;55.61
72465;BME280;60471;52.150;4.508;2023-04-06T03:32:05;101335.81;;;7.02;55.94
72465;BME280;60471;52.150;4.508;2023-04-06T03:34:31;101334.81;;;7.08;56.06
72465;BME280;60471;52.150;4.508;2023-04-06T03:36:57;101328.84;;;7.01;56.31
72465;BME280;60471;52.150;4.508;2023-04-06T03:39:24;101334.84;;;7.06;56.45
72465;BME280;60471;52.150;4.508;2023-04-06T03:41:50;101331.50;;;7.00;56.38
72465;BME280;60471;52.150;4.508;2023-04-06T03:44:16;101326.41;;;6.93;56.55
72465;BME280;60471;52.150;4.508;2023-04-06T03:46:42;101325.50;;;6.96;56.59
72465;BME280;60471;52.150;4.508;2023-04-06T03:49:08;101324.00;;;6.86;56.95
72465;BME280;60471;52.150;4.508;2023-04-06T03:51:35;101326.56;;;6.87;57.13
72465;BME280;60471;52.150;4.508;2023-04-06T03:54:01;101315.34;;;6.81;56.88
72465;BME280;60471;52.150;4.508;2023-04-06T03:56:27;101318.78;;;6.84;57.18
72465;BME280;60471;52.150;4.508;2023-04-06T03:58:53;101321.50;;;6.80;57.53
72465;BME280;60471;52.150;4.508;2023-04-06T04:01:20;101314.50;;;6.80;57.54
72465;BME280;60471;52.150;4.508;2023-04-06T04:03:46;101314.72;;;6.71;57.84
72465;BME280;60471;52.150;4.508;2023-04-06T04:06:12;101317.22;;;6.77;57.97
72465;BME280;60471;52.150;4.508;2023-04-06T04:08:38;101320.81;;;6.73;58.31
72465;BME280;60471;52.150;4.508;2023-04-06T04:11:05;101316.25;;;6.80;58.14
72465;BME280;60471;52.150;4.508;2023-04-06T04:13:31;101318.88;;;6.80;58.44
72465;BME280;60471;52.150;4.508;2023-04-06T04:15:57;101320.09;;;6.66;59.07
72465;BME280;60471;52.150;4.508;2023-04-06T04:18:24;101311.34;;;6.66;59.17
72465;BME280;60471;52.150;4.508;2023-04-06T04:20:52;101313.75;;;6.75;59.12
72465;BME280;60471;52.150;4.508;2023-04-06T04:23:19;101312.03;;;6.74;59.63
72465;BME280;60471;52.150;4.508;2023-04-06T04:25:45;101312.91;;;6.75;59.79
72465;BME280;60471;52.150;4.508;2023-04-06T04:28:11;101312.19;;;6.68;59.97
72465;BME280;60471;52.150;4.508;2023-04-06T04:30:37;101311.41;;;6.64;60.61
72465;BME280;60471;52.150;4.508;2023-04-06T04:33:03;101312.09;;;6.71;60.46
72465;BME280;60471;52.150;4.508;2023-04-06T04:35:30;101317.41;;;6.68;60.73
72465;BME280;60471;52.150;4.508;2023-04-06T04:37:56;101306.16;;;6.64;60.33
72465;BME280;60471;52.150;4.508;2023-04-06T04:40:22;101310.63;;;6.59;60.98
72465;BME280;60471;52.150;4.508;2023-04-06T04:42:48;101308.06;;;6.58;61.75
72465;BME280;60471;52.150;4.508;2023-04-06T04:45:16;101309.25;;;6.45;62.03
72465;BME280;60471;52.150;4.508;2023-04-06T04:47:42;101306.44;;;6.52;61.88
72465;BME280;60471;52.150;4.508;2023-04-06T04:50:09;101311.91;;;6.43;61.90
72465;BME280;60471;52.150;4.508;2023-04-06T04:52:37;101307.28;;;6.54;61.92
72465;BME280;60471;52.150;4.508;2023-04-06T04:55:04;101302.13;;;6.50;61.93
72465;BME280;60471;52.150;4.508;2023-04-06T04:57:30;101304.50;;;6.60;61.80
72465;BME280;60471;52.150;4.508;2023-04-06T04:59:56;101307.91;;;6.64;61.94
72465;BME280;60471;52.150;4.508;2023-04-06T05:02:23;101299.25;;;6.60;62.20
72465;BME280;60471;52.150;4.508;2023-04-06T05:04:49;101305.03;;;6.75;61.83
72465;BME280;60471;52.150;4.508;2023-04-06T05:07:16;101309.84;;;6.56;62.53
72465;BME280;60471;52.150;4.508;2023-04-06T05:09:44;101301.59;;;6.71;62.89
72465;BME280;60471;52.150;4.508;2023-04-06T05:12:10;101299.56;;;6.84;62.44
72465;BME280;60471;52.150;4.508;2023-04-06T05:14:37;101303.06;;;6.83;61.97
72465;BME280;60471;52.150;4.508;2023-04-06T05:17:03;101304.19;;;6.74;62.37
72465;BME280;60471;52.150;4.508;2023-04-06T05:19:29;101299.44;;;6.88;62.35
72465;BME280;60471;52.150;4.508;2023-04-06T05:21:56;101293.75;;;7.05;62.10
72465;BME280;60471;52.150;4.508;2023-04-06T05:24:22;101290.88;;;7.14;61.65
72465;BME280;60471;52.150;4.508;2023-04-06T05:26:48;101297.22;;;7.07;62.10
72465;BME280;60471;52.150;4.508;2023-04-06T05:29:16;101297.94;;;7.12;62.14
72465;BME280;60471;52.150;4.508;2023-04-06T05:31:42;101298.56;;;7.22;61.59
72465;BME280;60471;52.150;4.508;2023-04-06T05:34:09;101295.16;;;7.18;62.05
72465;BME280;60471;52.150;4.508;2023-04-06T05:36:35;101292.31;;;7.26;61.94
72465;BME280;60471;52.150;4.508;2023-04-06T05:39:01;101291.16;;;7.36;61.36
72465;BME280;60471;52.150;4.508;2023-04-06T05:41:28;101290.41;;;7.33;61.67
72465;BME280;60471;52.150;4.508;2023-04-06T05:43:54;101286.25;;;7.24;61.81
72465;BME280;60471;52.150;4.508;2023-04-06T05:46:20;101296.38;;;7.38;61.95
72465;BME280;60471;52.150;4.508;2023-04-06T05:48:46;101288.53;;;7.36;61.72
72465;BME280;60471;52.150;4.508;2023-04-06T05:51:13;101288.47;;;7.39;62.09
72465;BME280;60471;52.150;4.508;2023-04-06T05:53:39;101291.56;;;7.53;61.43
72465;BME280;60471;52.150;4.508;2023-04-06T05:56:05;101288.91;;;7.55;61.41
72465;BME280;60471;52.150;4.508;2023-04-06T05:58:32;101285.41;;;7.54;61.58
72465;BME280;60471;52.150;4.508;2023-04-06T06:00:59;101283.69;;;7.53;61.80
72465;BME280;60471;52.150;4.508;2023-04-06T06:03:26;101291.53;;;7.55;61.48
72465;BME280;60471;52.150;4.508;2023-04-06T06:05:52;101290.50;;;7.61;61.78
72465;BME280;60471;52.150;4.508;2023-04-06T06:08:18;101290.16;;;7.73;61.39
72465;BME280;60471;52.150;4.508;2023-04-06T06:10:45;101295.91;;;7.85;61.14
72465;BME280;60471;52.150;4.508;2023-04-06T06:13:11;101295.25;;;7.77;61.62
72465;BME280;60471;52.150;4.508;2023-04-06T06:15:37;101289.16;;;7.77;61.79
72465;BME280;60471;52.150;4.508;2023-04-06T06:18:03;101277.41;;;7.89;61.63
72465;BME280;60471;52.150;4.508;2023-04-06T06:20:30;101284.22;;;7.96;61.48
72465;BME280;60471;52.150;4.508;2023-04-06T06:22:56;101286.69;;;8.00;61.09
72465;BME280;60471;52.150;4.508;2023-04-06T06:25:23;101282.34;;;7.99;61.41
72465;BME280;60471;52.150;4.508;2023-04-06T06:27:49;101288.56;;;7.97;61.55
72465;BME280;60471;52.150;4.508;2023-04-06T06:30:16;101286.31;;;8.12;61.38
72465;BME280;60471;52.150;4.508;2023-04-06T06:32:42;101293.78;;;7.98;61.80
72465;BME280;60471;52.150;4.508;2023-04-06T06:35:08;101289.25;;;8.03;61.96
72465;BME280;60471;52.150;4.508;2023-04-06T06:37:34;101286.47;;;8.08;61.71
72465;BME280;60471;52.150;4.508;2023-04-06T06:40:01;101291.72;;;8.08;61.66
72465;BME280;60471;52.150;4.508;2023-04-06T06:42:27;101297.63;;;8.16;61.93
72465;BME280;60471;52.150;4.508;2023-04-06T06:44:54;101289.75;;;8.16;62.34
72465;BME280;60471;52.150;4.508;2023-04-06T06:47:20;101286.19;;;8.17;62.26
72465;BME280;60471;52.150;4.508;2023-04-06T06:49:46;101279.59;;;8.32;62.24
72465;BME280;60471;52.150;4.508;2023-04-06T06:52:12;101292.31;;;8.46;62.14
72465;BME280;60471;52.150;4.508;2023-04-06T06:54:38;101287.13;;;8.44;62.38
72465;BME280;60471;52.150;4.508;2023-04-06T06:57:05;101285.28;;;8.48;62.18
72465;BME280;60471;52.150;4.508;2023-04-06T06:59:31;101283.16;;;8.59;62.52
72465;BME280;60471;52.150;4.508;2023-04-06T07:01:57;101282.66;;;8.74;62.02
72465;BME280;60471;52.150;4.508;2023-04-06T07:04:24;101280.19;;;8.68;63.07
72465;BME280;60471;52.150;4.508;2023-04-06T07:06:50;101276.84;;;8.89;62.30
72465;BME280;60471;52.150;4.508;2023-04-06T07:09:18;101277.41;;;8.99;62.14
72465;BME280;60471;52.150;4.508;2023-04-06T07:11:45;101270.16;;;9.06;62.23
72465;BME280;60471;52.150;4.508;2023-04-06T07:14:11;101274.03;;;9.20;61.76
72465;BME280;60471;52.150;4.508;2023-04-06T07:16:37;101274.09;;;9.19;61.88
72465;BME280;60471;52.150;4.508;2023-04-06T07:19:04;101275.00;;;9.18;62.36
72465;BME280;60471;52.150;4.508;2023-04-06T07:21:30;101263.78;;;9.38;61.83
72465;BME280;60471;52.150;4.508;2023-04-06T07:23:56;101264.00;;;9.55;61.41
72465;BME280;60471;52.150;4.508;2023-04-06T07:26:22;101255.88;;;9.61;61.73
72465;BME280;60471;52.150;4.508;2023-04-06T07:28:48;101269.75;;;9.66;61.48
72465;BME280;60471;52.150;4.508;2023-04-06T07:31:15;101263.59;;;9.66;62.09
72465;BME280;60471;52.150;4.508;2023-04-06T07:33:41;101262.06;;;9.60;62.16
72465;BME280;60471;52.150;4.508;2023-04-06T07:36:07;101255.53;;;9.70;61.61
72465;BME280;60471;52.150;4.508;2023-04-06T07:38:33;101255.13;;;9.81;61.52
72465;BME280;60471;52.150;4.508;2023-04-06T07:41:00;101254.84;;;9.88;61.63
72465;BME280;60471;52.150;4.508;2023-04-06T07:43:28;101255.22;;;10.01;61.70
72465;BME280;60471;52.150;4.508;2023-04-06T07:45:55;101255.16;;;10.03;61.88
72465;BME280;60471;52.150;4.508;2023-04-06T07:48:23;101247.38;;;10.00;61.54
72465;BME280;60471;52.150;4.508;2023-04-06T07:50:49;101251.28;;;9.90;62.09
72465;BME280;60471;52.150;4.508;2023-04-06T07:53:15;101247.25;;;10.03;62.56
72465;BME280;60471;52.150;4.508;2023-04-06T07:55:41;101249.84;;;10.04;63.04
72465;BME280;60471;52.150;4.508;2023-04-06T07:58:08;101254.13;;;10.07;63.86
72465;BME280;60471;52.150;4.508;2023-04-06T08:00:34;101250.81;;;10.02;64.32
72465;BME280;60471;52.150;4.508;2023-04-06T08:03:00;101250.22;;;9.72;65.81
72465;BME280;60471;52.150;4.508;2023-04-06T08:05:27;101257.50;;;9.88;66.07
72465;BME280;60471;52.150;4.508;2023-04-06T08:07:53;101244.31;;;9.88;66.12
72465;BME280;60471;52.150;4.508;2023-04-06T08:10:19;101250.41;;;9.66;67.00
72465;BME280;60471;52.150;4.508;2023-04-06T08:12:45;101252.72;;;9.51;67.71
72465;BME280;60471;52.150;4.508;2023-04-06T08:15:12;101254.09;;;9.62;68.04
72465;BME280;60471;52.150;4.508;2023-04-06T08:17:38;101263.91;;;9.81;67.78
72465;BME280;60471;52.150;4.508;2023-04-06T08:20:04;101252.22;;;9.88;67.24
72465;BME280;60471;52.150;4.508;2023-04-06T08:22:33;101259.81;;;9.73;68.65
72465;BME280;60471;52.150;4.508;2023-04-06T08:24:59;101258.94;;;9.96;68.42
72465;BME280;60471;52.150;4.508;2023-04-06T08:27:26;101257.81;;;10.03;68.13
72465;BME280;60471;52.150;4.508;2023-04-06T08:29:52;101254.00;;;9.88;68.55
72465;BME280;60471;52.150;4.508;2023-04-06T08:32:18;101253.16;;;10.09;68.27
72465;BME280;60471;52.150;4.508;2023-04-06T08:34:44;101257.22;;;9.95;67.88
72465;BME280;60471;52.150;4.508;2023-04-06T08:37:11;101271.75;;;9.83;68.34
72465;BME280;60471;52.150;4.508;2023-04-06T08:39:37;101253.56;;;9.75;69.27
72465;BME280;60471;52.150;4.508;2023-04-06T08:42:03;101263.63;;;9.89;69.22
72465;BME280;60471;52.150;4.508;2023-04-06T08:44:31;101263.03;;;9.57;69.83
72465;BME280;60471;52.150;4.508;2023-04-06T08:46:59;101255.16;;;9.57;70.72
72465;BME280;60471;52.150;4.508;2023-04-06T08:49:27;101257.25;;;9.71;70.58
72465;BME280;60471;52.150;4.508;2023-04-06T08:51:55;101267.13;;;9.41;71.18
72465;BME280;60471;52.150;4.508;2023-04-06T08:54:21;101257.47;;;9.65;70.59
72465;BME280;60471;52.150;4.508;2023-04-06T08:56:48;101246.88;;;9.43;71.48
72465;BME280;60471;52.150;4.508;2023-04-06T08:59:14;101253.75;;;9.47;72.30
72465;BME280;60471;52.150;4.508;2023-04-06T09:01:42;101255.34;;;9.28;71.60
72465;BME280;60471;52.150;4.508;2023-04-06T09:04:11;101253.38;;;9.33;72.08
72465;BME280;60471;52.150;4.508;2023-04-06T09:06:38;101278.06;;;9.30;71.49
72465;BME280;60471;52.150;4.508;2023-04-06T09:09:06;101252.38;;;9.37;71.91
72465;BME280;60471;52.150;4.508;2023-04-06T09:12:02;101243.81;;;9.55;71.15
72465;BME280;60471;52.150;4.508;2023-04-06T09:14:38;101252.28;;;9.15;70.58
72465;BME280;60471;52.150;4.508;2023-04-06T09:17:05;101248.84;;;9.13;71.55
72465;BME280;60471;52.150;4.508;2023-04-06T09:19:31;101257.06;;;9.29;71.02
72465;BME280;60471;52.150;4.508;2023-04-06T09:22:03;101244.53;;;9.36;71.54
72465;BME280;60471;52.150;4.508;2023-04-06T09:24:43;101243.03;;;9.28;71.83
72465;BME280;60471;52.150;4.508;2023-04-06T09:27:10;101246.25;;;9.37;72.46
72465;BME280;60471;52.150;4.508;2023-04-06T09:29:37;101247.09;;;9.37;71.66
72465;BME280;60471;52.150;4.508;2023-04-06T09:32:07;101274.16;;;9.17;71.93
72465;BME280;60471;52.150;4.508;2023-04-06T09:34:39;101253.34;;;9.10;72.85
72465;BME280;60471;52.150;4.508;2023-04-06T09:37:18;101246.97;;;9.17;74.01
72465;BME280;60471;52.150;4.508;2023-04-06T09:39:45;101244.00;;;9.26;73.80
72465;BME280;60471;52.150;4.508;2023-04-06T09:42:25;101240.28;;;9.32;73.26
72465;BME280;60471;52.150;4.508;2023-04-06T09:44:51;101242.91;;;9.32;73.59
72465;BME280;60471;52.150;4.508;2023-04-06T09:47:18;101243.81;;;9.30;74.00
72465;BME280;60471;52.150;4.508;2023-04-06T09:49:47;101234.59;;;9.19;74.60
72465;BME280;60471;52.150;4.508;2023-04-06T09:52:16;101243.47;;;9.16;74.94
72465;BME280;60471;52.150;4.508;2023-04-06T09:54:46;101241.78;;;8.89;75.42
72465;BME280;60471;52.150;4.508;2023-04-06T09:59:52;101230.69;;;9.06;76.74
72465;BME280;60471;52.150;4.508;2023-04-06T10:05:42;101234.56;;;8.95;76.88
72465;BME280;60471;52.150;4.508;2023-04-06T10:08:13;101230.56;;;8.84;77.06
72465;BME280;60471;52.150;4.508;2023-04-06T10:10:41;101234.63;;;8.67;78.24
72465;BME280;60471;52.150;4.508;2023-04-06T10:13:10;101217.84;;;8.71;78.60
72465;BME280;60471;52.150;4.508;2023-04-06T10:15:41;101230.75;;;8.79;78.34
72465;BME280;60471;52.150;4.508;2023-04-06T10:18:08;101223.03;;;8.48;78.68
72465;BME280;60471;52.150;4.508;2023-04-06T10:20:48;101217.47;;;8.56;78.61
72465;BME280;60471;52.150;4.508;2023-04-06T10:23:24;101221.13;;;8.52;79.44
72465;BME280;60471;52.150;4.508;2023-04-06T10:25:58;101214.16;;;8.51;79.91
72465;BME280;60471;52.150;4.508;2023-04-06T10:28:31;101219.38;;;8.52;79.95
72465;BME280;60471;52.150;4.508;2023-04-06T10:31:00;101215.47;;;8.64;80.62
72465;BME280;60471;52.150;4.508;2023-04-06T10:33:30;101210.66;;;8.50;80.08
72465;BME280;60471;52.150;4.508;2023-04-06T10:35:56;101226.91;;;8.63;81.20
72465;BME280;60471;52.150;4.508;2023-04-06T10:38:38;101210.06;;;8.68;81.22
72465;BME280;60471;52.150;4.508;2023-04-06T10:41:10;101213.13;;;8.55;81.51
72465;BME280;60471;52.150;4.508;2023-04-06T10:43:38;101203.78;;;8.73;81.10
72465;BME280;60471;52.150;4.508;2023-04-06T10:46:07;101195.16;;;8.67;80.94
72465;BME280;60471;52.150;4.508;2023-04-06T10:48:38;101202.06;;;8.71;81.54
72465;BME280;60471;52.150;4.508;2023-04-06T10:51:14;101202.06;;;8.71;80.61
72465;BME280;60471;52.150;4.508;2023-04-06T10:53:42;101187.94;;;8.74;81.25
72465;BME280;60471;52.150;4.508;2023-04-06T10:56:11;101183.38;;;8.79;81.37
72465;BME280;60471;52.150;4.508;2023-04-06T10:58:48;101178.00;;;8.82;81.61
72465;BME280;60471;52.150;4.508;2023-04-06T11:01:20;101179.34;;;8.69;81.78
72465;BME280;60471;52.150;4.508;2023-04-06T11:03:54;101184.63;;;8.69;82.40
72465;BME280;60471;52.150;4.508;2023-04-06T11:06:26;101185.59;;;8.65;82.74
72465;BME280;60471;52.150;4.508;2023-04-06T11:08:59;101186.41;;;8.67;82.17
72465;BME280;60471;52.150;4.508;2023-04-06T11:11:26;101186.78;;;8.56;82.43
72465;BME280;60471;52.150;4.508;2023-04-06T11:13:59;101161.50;;;8.77;83.06
72465;BME280;60471;52.150;4.508;2023-04-06T11:16:29;101176.38;;;8.78;82.51
72465;BME280;60471;52.150;4.508;2023-04-06T11:19:03;101173.06;;;8.73;82.60
72465;BME280;60471;52.150;4.508;2023-04-06T11:24:16;101174.97;;;8.68;82.85
72465;BME280;60471;52.150;4.508;2023-04-06T11:26:59;101173.50;;;8.61;83.41
72465;BME280;60471;52.150;4.508;2023-04-06T11:29:30;101182.00;;;8.67;83.33
72465;BME280;60471;52.150;4.508;2023-04-06T11:32:05;101163.03;;;8.59;83.62
72465;BME280;60471;52.150;4.508;2023-04-06T11:34:36;101160.06;;;8.68;83.28
72465;BME280;60471;52.150;4.508;2023-04-06T11:37:08;101151.69;;;8.82;83.19
72465;BME280;60471;52.150;4.508;2023-04-06T11:39:43;101164.31;;;8.73;83.16
72465;BME280;60471;52.150;4.508;2023-04-06T11:42:21;101150.25;;;8.74;83.52
72465;BME280;60471;52.150;4.508;2023-04-06T11:44:54;101147.50;;;8.77;83.61
72465;BME280;60471;52.150;4.508;2023-04-06T11:47:30;101163.09;;;8.56;84.08
72465;BME280;60471;52.150;4.508;2023-04-06T11:50:12;101147.94;;;8.64;84.40
72465;BME280;60471;52.150;4.508;2023-04-06T11:52:40;101142.47;;;8.70;84.65
72465;BME280;60471;52.150;4.508;2023-04-06T11:55:26;101144.97;;;8.74;85.12
72465;BME280;60471;52.150;4.508;2023-04-06T11:57:52;101142.22;;;8.77;85.18
72465;BME280;60471;52.150;4.508;2023-04-06T12:00:18;101134.25;;;8.80;85.27
72465;BME280;60471;52.150;4.508;2023-04-06T12:02:47;101140.13;;;8.86;85.33
72465;BME280;60471;52.150;4.508;2023-04-06T12:05:15;101135.03;;;8.82;85.25
72465;BME280;60471;52.150;4.508;2023-04-06T12:07:41;101136.88;;;8.80;85.43
72465;BME280;60471;52.150;4.508;2023-04-06T12:10:07;101128.28;;;8.75;85.71
72465;BME280;60471;52.150;4.508;2023-04-06T12:12:34;101129.28;;;8.95;84.87
72465;BME280;60471;52.150;4.508;2023-04-06T12:15:00;101134.25;;;8.80;85.01
72465;BME280;60471;52.150;4.508;2023-04-06T12:17:26;101133.88;;;8.90;84.73
72465;BME280;60471;52.150;4.508;2023-04-06T12:19:52;101125.25;;;8.85;84.86
72465;BME280;60471;52.150;4.508;2023-04-06T12:22:19;101125.13;;;8.88;85.04
72465;BME280;60471;52.150;4.508;2023-04-06T12:24:45;101124.47;;;8.83;85.48
72465;BME280;60471;52.150;4.508;2023-04-06T12:27:11;101125.44;;;8.81;85.17
72465;BME280;60471;52.150;4.508;2023-04-06T12:29:38;101120.97;;;8.83;85.36
72465;BME280;60471;52.150;4.508;2023-04-06T12:32:04;101120.50;;;8.71;85.05
72465;BME280;60471;52.150;4.508;2023-04-06T12:34:31;101127.69;;;8.66;85.83
72465;BME280;60471;52.150;4.508;2023-04-06T12:36:58;101130.47;;;8.62;85.94
72465;BME280;60471;52.150;4.508;2023-04-06T12:39:24;101119.97;;;8.62;86.05
72465;BME280;60471;52.150;4.508;2023-04-06T12:41:51;101115.44;;;8.65;86.16
72465;BME280;60471;52.150;4.508;2023-04-06T12:44:17;101115.19;;;8.73;85.84
72465;BME280;60471;52.150;4.508;2023-04-06T12:46:43;101119.31;;;8.80;85.72
72465;BME280;60471;52.150;4.508;2023-04-06T12:49:09;101112.09;;;8.85;86.16
72465;BME280;60471;52.150;4.508;2023-04-06T12:51:36;101113.06;;;8.83;86.41
72465;BME280;60471;52.150;4.508;2023-04-06T12:54:02;101112.22;;;8.82;86.35
72465;BME280;60471;52.150;4.508;2023-04-06T12:56:28;101109.28;;;8.90;86.23
72465;BME280;60471;52.150;4.508;2023-04-06T12:58:54;101106.66;;;8.90;86.80
72465;BME280;60471;52.150;4.508;2023-04-06T13:01:21;101097.41;;;8.80;86.84
72465;BME280;60471;52.150;4.508;2023-04-06T13:03:47;101098.28;;;8.79;87.30
72465;BME280;60471;52.150;4.508;2023-04-06T13:06:13;101096.44;;;8.82;87.08
72465;BME280;60471;52.150;4.508;2023-04-06T13:08:41;101090.31;;;8.82;87.68
72465;BME280;60471;52.150;4.508;2023-04-06T13:11:07;101105.34;;;8.78;87.72